Time;durP1;ratioP1;P1;durP2;ratioP2;P2;SDS_P1;SDS_P2;PMS_P1;PMS_P2;Temp;Humidity;BMP_temperature;BMP_pressure;BME280_temperature;BME280_humidity;BME280_pressure;Samples;Min_cycle;Max_cycle;Signal;HPM_P1;HPM_P2
2023/07/29 04:13:09;;;;;;;5.18;2.08;;;;;;;30.06;58.39;99998.13;10400394;28;20424;-78
2023/07/29 04:18:10;;;;;;;4.05;2.00;;;;;;;29.95;57.10;99935.38;10391691;28;20053;-79
2023/07/29 04:23:10;;;;;;;10.48;2.10;;;;;;;30.43;55.18;99936.81;10377786;28;20044;-77
2023/07/29 04:28:11;;;;;;;4.35;1.80;;;;;;;30.25;52.19;99901.03;10398413;28;20043;-77
2023/07/29 04:33:12;;;;;;;8.30;1.88;;;;;;;30.87;51.93;100015.53;10418116;28;20133;-78
2023/07/29 04:38:13;;;;;;;6.32;1.75;;;;;;;30.13;51.29;99894.47;10381297;28;20413;-78
2023/07/29 04:43:13;;;;;;;4.47;1.52;;;;;;;30.29;51.13;99953.28;10376244;28;20038;-76
2023/07/29 04:48:14;;;;;;;3.45;1.73;;;;;;;29.72;50.33;99941.91;10376126;28;20060;-79
2023/07/29 04:53:15;;;;;;;2.85;1.42;;;;;;;29.71;49.44;99953.97;10376392;28;20037;-78
2023/07/29 04:58:16;;;;;;;3.75;1.50;;;;;;;29.69;49.01;100008.22;10375569;28;20417;-77
2023/07/29 05:03:16;;;;;;;3.47;1.50;;;;;;;29.50;49.63;100021.97;10376241;28;20615;-77
2023/07/29 05:08:17;;;;;;;3.95;1.35;;;;;;;29.31;49.17;100016.53;10375541;28;20046;-77
2023/07/29 05:13:19;;;;;;;3.78;1.50;;;;;;;28.61;48.29;100011.91;10376166;28;20448;-76
2023/07/29 05:18:19;;;;;;;3.58;1.67;;;;;;;28.13;49.70;100025.66;10375254;28;20046;-76
2023/07/29 05:23:20;;;;;;;4.80;1.60;;;;;;;27.36;49.85;99992.94;10374725;28;20038;-76
2023/07/29 05:28:21;;;;;;;5.40;1.48;;;;;;;26.58;50.83;99949.13;10375243;28;20141;-78
2023/07/29 05:33:22;;;;;;;5.85;1.52;;;;;;;26.05;50.46;99899.09;10374964;28;20042;-78
2023/07/29 05:38:22;;;;;;;3.55;1.58;;;;;;;25.82;49.92;99878.81;10356601;28;20042;-78
2023/07/29 05:43:27;;;;;;;3.67;1.45;;;;;;;26.19;50.86;99968.16;10374063;28;20182;-76
2023/07/29 05:48:27;;;;;;;4.63;1.38;;;;;;;26.68;51.02;100029.97;10374248;28;20045;-75
2023/07/29 05:53:29;;;;;;;3.90;1.25;;;;;;;26.05;51.12;99956.25;10372023;28;20056;-76
2023/07/29 05:58:31;;;;;;;2.55;1.00;;;;;;;26.36;52.01;100014.91;10331988;28;20050;-77
2023/07/29 06:03:31;;;;;;;6.05;1.38;;;;;;;26.39;51.30;100019.78;10332029;28;20159;-77
2023/07/29 06:08:34;;;;;;;7.78;1.40;;;;;;;26.33;51.76;100023.63;10328479;28;20046;-79
2023/07/29 06:13:35;;;;;;;3.70;1.03;;;;;;;26.46;52.21;100035.00;10315277;28;20069;-90
2023/07/29 06:18:35;;;;;;;4.75;1.33;;;;;;;26.55;53.11;100009.63;10314910;28;20485;-76
2023/07/29 06:23:36;;;;;;;3.92;1.05;;;;;;;26.90;53.36;100015.94;10330225;28;20073;-73
2023/07/29 06:28:37;;;;;;;3.55;1.30;;;;;;;26.65;52.94;99965.16;10330680;28;20490;-72
2023/07/29 06:33:37;;;;;;;3.05;1.20;;;;;;;26.36;52.67;99930.47;10329818;28;20038;-73
2023/07/29 06:38:38;;;;;;;6.38;1.25;;;;;;;25.64;52.57;99814.97;10329859;28;20043;-72
2023/07/29 06:43:39;;;;;;;2.00;1.00;;;;;;;26.41;53.34;99922.28;10329444;28;20034;-76
2023/07/29 06:48:40;;;;;;;5.22;1.30;;;;;;;26.76;53.15;99955.81;10330277;28;20112;-74
2023/07/29 06:53:41;;;;;;;4.78;1.73;;;;;;;27.04;52.24;99999.72;10313073;28;20569;-74
2023/07/29 06:58:41;;;;;;;2.75;1.02;;;;;;;26.64;52.45;99928.91;10331660;28;20093;-74
2023/07/29 07:03:42;;;;;;;4.20;1.38;;;;;;;27.02;52.90;99964.59;10338601;28;20078;-73
2023/07/29 07:08:44;;;;;;;4.80;1.13;;;;;;;27.22;52.85;99981.88;10337356;28;20548;-74
2023/07/29 07:13:44;;;;;;;3.90;1.67;;;;;;;27.47;52.29;99997.19;10337844;28;20073;-74
2023/07/29 07:18:45;;;;;;;5.18;1.30;;;;;;;27.36;51.86;99990.19;10338183;28;20077;-74
2023/07/29 07:23:46;;;;;;;5.18;1.40;;;;;;;27.10;50.64;99944.06;10337367;28;20041;-74
2023/07/29 07:28:47;;;;;;;6.25;1.30;;;;;;;27.38;50.90;99963.47;10335661;28;20077;-74
2023/07/29 07:33:47;;;;;;;2.60;1.20;;;;;;;27.72;50.19;99966.88;10317118;28;20449;-75
2023/07/29 07:38:48;;;;;;;4.05;1.30;;;;;;;27.70;49.16;99968.25;10319444;28;20134;-76
2023/07/29 07:43:49;;;;;;;3.17;1.25;;;;;;;27.82;49.34;99965.16;10336587;28;20041;-76
2023/07/29 07:48:50;;;;;;;5.97;1.15;;;;;;;28.07;48.56;99970.28;10336746;28;20088;-76
2023/07/29 07:53:50;;;;;;;2.30;1.20;;;;;;;27.76;47.80;99932.44;10336312;28;20042;-78
2023/07/29 07:58:51;;;;;;;4.13;1.60;;;;;;;27.84;47.68;99894.72;10336725;28;20505;-72
2023/07/29 08:03:52;;;;;;;3.60;1.33;;;;;;;28.30;45.88;99945.94;10336102;28;20069;-80
2023/07/29 08:08:52;;;;;;;6.45;1.40;;;;;;;28.04;46.26;99866.31;10334407;28;20069;-70
2023/07/29 08:13:53;;;;;;;3.67;1.48;;;;;;;28.23;45.14;99865.19;10336151;28;20045;-79
2023/07/29 08:18:54;;;;;;;3.58;1.50;;;;;;;28.72;46.61;99927.81;10331932;28;20480;-79
2023/07/29 08:23:55;;;;;;;2.70;1.45;;;;;;;28.56;44.72;99913.59;10332214;28;20057;-81
2023/07/29 08:28:55;;;;;;;3.10;1.50;;;;;;;28.56;45.32;99900.75;10333974;28;20092;-79
2023/07/29 08:33:56;;;;;;;2.55;1.30;;;;;;;28.66;45.46;99903.34;10317353;28;20085;-83
2023/07/29 08:38:57;;;;;;;5.47;1.60;;;;;;;28.63;46.17;99826.59;10335246;28;20038;-79
2023/07/29 08:44:17;;;;;;;3.45;1.30;;;;;;;28.80;44.91;99848.69;10334515;28;20116;-77
2023/07/29 08:49:23;;;;;;;5.30;1.73;;;;;;;29.20;43.16;99900.22;10333534;28;20093;-81
2023/07/29 08:54:24;;;;;;;3.40;1.85;;;;;;;28.84;44.33;99857.13;10316151;28;20061;-80
2023/07/29 08:59:26;;;;;;;4.95;1.70;;;;;;;28.88;43.78;99828.03;10333804;28;20052;-83
2023/07/29 09:04:28;;;;;;;4.83;1.80;;;;;;;29.38;42.94;99880.16;10333710;28;20046;-82
2023/07/29 09:09:29;;;;;;;2.78;1.33;;;;;;;29.17;41.18;99827.78;10334013;28;20081;-86
2023/07/29 09:14:30;;;;;;;19.77;2.67;;;;;;;29.66;41.20;99861.81;10334053;28;20058;-81
2023/07/29 09:19:33;;;;;;;4.60;1.55;;;;;;;29.40;41.21;99856.03;10332603;28;20426;-77
2023/07/29 09:24:34;;;;;;;2.15;1.27;;;;;;;29.67;41.36;99854.41;10330535;28;20034;-78
2023/07/29 09:29:36;;;;;;;2.35;1.30;;;;;;;29.74;41.21;99843.84;10332202;28;20069;-81
2023/07/29 09:34:42;;;;;;;3.47;1.50;;;;;;;29.22;40.39;99734.66;10333755;28;20591;-81
2023/07/29 09:39:47;;;;;;;2.78;1.38;;;;;;;29.75;40.47;99820.81;10330896;28;20046;-79
2023/07/29 09:44:50;;;;;;;5.07;1.25;;;;;;;29.70;40.54;99821.75;10333919;28;20042;-82
2023/07/29 09:49:52;;;;;;;3.25;1.42;;;;;;;29.58;40.10;99830.44;10333788;28;20437;-80
2023/07/29 09:54:52;;;;;;;3.47;1.40;;;;;;;29.62;39.65;99830.69;10316541;28;20619;-79
2023/07/29 09:59:57;;;;;;;3.47;1.30;;;;;;;29.32;39.96;99832.13;10332962;28;20166;-79
2023/07/29 10:04:59;;;;;;;3.75;1.40;;;;;;;29.28;39.88;99818.25;10333135;28;20578;-78
2023/07/29 10:10:01;;;;;;;4.35;1.33;;;;;;;29.28;40.70;99784.59;10327419;28;20061;-83
2023/07/29 10:15:05;;;;;;;3.20;1.20;;;;;;;29.82;40.45;99793.03;10332472;28;20042;-81
2023/07/29 10:20:08;;;;;;;3.45;1.17;;;;;;;30.09;39.27;99787.41;10313237;28;20822;-81
2023/07/29 10:25:30;;;;;;;2.65;1.30;;;;;;;30.52;39.48;99810.78;10331990;28;20057;-80
2023/07/29 10:30:33;;;;;;;4.03;1.48;;;;;;;30.38;39.67;99810.84;10330529;28;20046;-79
2023/07/29 10:35:34;;;;;;;4.18;1.30;;;;;;;30.18;39.69;99807.47;10332080;28;20501;-85
2023/07/29 10:40:45;;;;;;;7.20;1.60;;;;;;;30.42;38.67;99782.53;10330997;28;20081;-79
2023/07/29 10:45:46;;;;;;;2.97;1.60;;;;;;;30.74;39.21;99797.00;10330184;28;20045;-78
2023/07/29 10:50:46;;;;;;;4.30;1.80;;;;;;;30.14;38.85;99748.16;10329958;28;20092;-81
2023/07/29 10:55:47;;;;;;;5.43;2.50;;;;;;;29.03;40.43;99725.78;10330525;28;20568;-78
2023/07/29 11:00:49;;;;;;;4.95;1.40;;;;;;;29.54;40.05;99799.34;10329877;28;20520;-84
2023/07/29 11:05:52;;;;;;;5.00;1.52;;;;;;;30.17;39.86;99783.94;10328954;28;20101;-93
2023/07/29 11:11:02;;;;;;;6.95;1.50;;;;;;;29.90;40.15;99751.22;10329126;28;20055;-78
2023/07/29 11:16:03;;;;;;;5.25;1.67;;;;;;;29.83;39.54;99724.28;10329725;28;20077;-76
2023/07/29 11:21:04;;;;;;;4.75;1.40;;;;;;;29.56;38.92;99712.28;10329493;28;20053;-75
2023/07/29 11:26:05;;;;;;;2.53;1.50;;;;;;;29.80;38.57;99741.31;10329175;28;20047;-85
2023/07/29 11:31:06;;;;;;;4.75;1.50;;;;;;;30.51;38.64;99762.56;10311710;28;20705;-76
2023/07/29 11:36:18;;;;;;;3.75;1.73;;;;;;;30.63;37.71;99749.91;10312357;28;20078;-81
2023/07/29 11:41:23;;;;;;;2.97;1.50;;;;;;;30.91;37.29;99769.69;10330723;28;20046;-85
2023/07/29 11:46:25;;;;;;;3.00;1.50;;;;;;;30.86;36.81;99753.38;10335114;28;20422;-79
2023/07/29 11:51:26;;;;;;;3.53;1.70;;;;;;;31.01;36.66;99765.03;10338404;28;20049;-81
2023/07/29 11:56:27;;;;;;;5.35;1.65;;;;;;;30.92;35.63;99743.88;10338203;28;20608;-78
2023/07/29 12:01:28;;;;;;;5.10;1.65;;;;;;;30.72;36.31;99700.56;10337680;28;20129;-77
2023/07/29 12:06:31;;;;;;;4.07;1.50;;;;;;;30.84;35.71;99769.38;10337870;28;20085;-76
2023/07/29 12:11:32;;;;;;;2.83;1.50;;;;;;;30.67;35.53;99698.78;10337999;28;20101;-87
2023/07/29 12:16:41;;;;;;;2.30;1.40;;;;;;;31.20;35.00;99768.31;10338061;28;20146;-88
2023/07/29 12:21:42;;;;;;;7.30;1.40;;;;;;;30.73;34.96;99706.88;10336881;28;20034;-79
2023/07/29 12:26:44;;;;;;;4.22;1.30;;;;;;;31.28;35.23;99762.03;10337472;28;20398;-79
2023/07/29 12:31:46;;;;;;;5.97;1.83;;;;;;;31.14;34.92;99764.09;10337080;28;20092;-78
2023/07/29 12:36:48;;;;;;;4.10;1.40;;;;;;;31.25;35.96;99759.94;10334876;28;20042;-76
2023/07/29 12:41:50;;;;;;;;;;;;;;;31.42;35.82;99753.69;10337324;28;20054;-75
2023/07/29 12:46:51;;;;;;;2.15;1.20;;;;;;;30.91;34.78;99738.72;10336142;28;19914;-78
2023/07/29 12:51:52;;;;;;;5.75;1.23;;;;;;;30.93;34.13;99763.88;10336055;28;20037;-77
2023/07/29 12:56:53;;;;;;;5.05;1.38;;;;;;;30.77;34.36;99758.00;10334219;28;20561;-76
2023/07/29 13:01:54;;;;;;;4.80;1.25;;;;;;;30.90;34.00;99751.63;10335142;28;20100;-73
2023/07/29 13:06:56;;;;;;;2.65;1.20;;;;;;;30.96;34.34;99756.94;10335306;28;20041;-82
2023/07/29 13:11:57;;;;;;;3.40;1.50;;;;;;;30.81;34.52;99720.63;10335466;28;20061;-79
2023/07/29 13:16:57;;;;;;;3.00;1.50;;;;;;;31.05;34.16;99757.78;10344157;28;20414;-76
2023/07/29 13:21:58;;;;;;;2.25;1.15;;;;;;;30.88;34.32;99751.13;10334456;28;20050;-76
2023/07/29 13:26:59;;;;;;;3.78;1.20;;;;;;;30.64;33.96;99729.56;10334224;28;20039;-80
2023/07/29 13:32:00;;;;;;;3.20;1.58;;;;;;;30.56;33.97;99722.13;10334707;28;20061;-81
2023/07/29 13:37:01;;;;;;;6.50;3.15;;;;;;;30.54;33.25;99734.50;10334445;28;20038;-78
2023/07/29 13:42:01;;;;;;;4.00;1.65;;;;;;;30.66;33.44;99756.66;10333902;28;20039;-78
2023/07/29 13:47:02;;;;;;;34.70;2.15;;;;;;;30.21;33.59;99699.22;10333923;28;20046;-81
2023/07/29 13:52:04;;;;;;;4.43;1.45;;;;;;;30.05;33.38;99670.59;10333281;28;20042;-82
2023/07/29 13:57:06;;;;;;;4.18;1.40;;;;;;;29.69;33.33;99630.47;10333793;28;20069;-82
2023/07/29 14:02:07;;;;;;;10.30;1.70;;;;;;;30.50;34.10;99759.00;10333725;28;20120;-82
2023/07/29 14:07:08;;;;;;;6.13;1.30;;;;;;;30.37;34.84;99736.06;10332465;28;20046;-83
2023/07/29 14:12:14;;;;;;;7.28;1.35;;;;;;;30.07;34.19;99702.03;10333417;28;20054;-83
2023/07/29 14:17:15;;;;;;;2.83;1.30;;;;;;;30.41;34.49;99758.16;10332880;28;20506;-81
2023/07/29 14:22:16;;;;;;;3.22;1.50;;;;;;;29.71;34.20;99678.28;10333485;28;20040;-84
2023/07/29 14:27:16;;;;;;;4.97;1.30;;;;;;;29.69;33.87;99687.94;10333049;28;20050;-82
2023/07/29 14:32:17;;;;;;;4.55;1.38;;;;;;;29.94;34.07;99741.25;10331802;28;20046;-85
2023/07/29 14:37:18;;;;;;;2.60;1.15;;;;;;;29.93;34.86;99787.00;10332331;28;20046;-80
2023/07/29 14:42:19;;;;;;;6.60;1.45;;;;;;;29.54;34.95;99752.84;10331367;28;20049;-81
2023/07/29 14:47:20;;;;;;;8.40;1.77;;;;;;;29.64;36.05;99759.22;10331730;28;20042;-82
2023/07/29 14:52:20;;;;;;;8.18;1.70;;;;;;;29.63;36.06;99783.03;10331865;28;20426;-80
2023/07/29 14:57:21;;;;;;;5.43;1.58;;;;;;;29.51;36.66;99769.06;10331700;28;20042;-80
2023/07/29 15:02:23;;;;;;;3.92;1.60;;;;;;;29.56;36.71;99768.97;10331591;28;20042;-81
2023/07/29 15:07:24;;;;;;;2.28;1.27;;;;;;;29.41;36.70;99759.16;10331565;28;20502;-81
2023/07/29 15:12:24;;;;;;;2.33;1.40;;;;;;;29.46;36.26;99808.28;10314202;28;20050;-80
2023/07/29 15:17:25;;;;;;;2.40;1.27;;;;;;;28.59;36.30;99697.13;10331722;28;20046;-80
2023/07/29 15:22:26;;;;;;;3.00;1.10;;;;;;;29.05;36.64;99798.22;10337571;28;20565;-81
2023/07/29 15:27:28;;;;;;;8.52;1.33;;;;;;;28.78;36.44;99782.59;10339500;28;20413;-79
2023/07/29 15:32:29;;;;;;;4.40;1.30;;;;;;;28.88;37.27;99817.91;10321542;28;20066;-80
2023/07/29 15:37:30;;;;;;;6.47;1.35;;;;;;;28.20;38.35;99763.91;10338277;28;20506;-81
2023/07/29 15:42:31;;;;;;;6.38;1.73;;;;;;;28.15;39.53;99811.25;10338217;28;20041;-80
2023/07/29 15:47:31;;;;;;;4.78;1.80;;;;;;;28.01;40.27;99834.16;10338526;28;20046;-80
2023/07/29 15:52:32;;;;;;;7.18;1.55;;;;;;;27.65;41.04;99823.72;10338797;28;20038;-80
2023/07/29 15:57:33;;;;;;;18.98;2.08;;;;;;;27.53;42.18;99854.16;10337604;28;20521;-80
2023/07/29 16:02:34;;;;;;;15.05;1.48;;;;;;;26.60;41.38;99747.28;10337061;28;20038;-80
2023/07/29 16:07:34;;;;;;;22.33;2.33;;;;;;;27.08;42.14;99865.28;10338456;28;20043;-79
2023/07/29 16:12:38;;;;;;;4.78;1.67;;;;;;;26.73;42.01;99844.66;10338209;28;20073;-79
2023/07/29 16:17:38;;;;;;;;;;;;;;;26.84;42.54;99878.09;10338043;28;20057;-80
2023/07/29 16:22:39;;;;;;;12.40;1.65;;;;;;;26.20;44.16;99858.16;10336705;28;19918;-80
2023/07/29 16:27:40;;;;;;;14.63;2.00;;;;;;;25.58;45.54;99813.38;10337207;28;20458;-79
2023/07/29 16:32:41;;;;;;;38.75;3.30;;;;;;;25.68;47.10;99898.44;10332775;28;20034;-79
2023/07/29 16:37:41;;;;;;;24.50;2.92;;;;;;;25.40;47.92;99899.91;10336661;28;20053;-80
2023/07/29 16:42:42;;;;;;;26.45;3.28;;;;;;;25.18;49.39;99907.56;10334234;28;20042;-80
2023/07/29 16:47:43;;;;;;;58.05;3.70;;;;;;;24.83;50.53;99887.50;10331161;28;20047;-81
2023/07/29 16:52:44;;;;;;;41.85;3.25;;;;;;;24.57;51.27;99895.66;10330138;28;20078;-82
2023/07/29 16:57:45;;;;;;;25.60;2.88;;;;;;;24.49;52.37;99928.78;10331633;28;20046;-81
2023/07/29 17:02:46;;;;;;;28.00;3.30;;;;;;;23.88;53.75;99872.47;10334377;28;20034;-82
2023/07/29 17:07:47;;;;;;;43.85;3.55;;;;;;;24.11;54.72;99940.88;10332444;28;20054;-80
2023/07/29 17:12:48;;;;;;;14.15;2.13;;;;;;;23.89;55.94;99952.75;10315113;28;20093;-80
2023/07/29 17:17:49;;;;;;;16.17;2.50;;;;;;;23.41;56.95;99910.50;10313698;28;20494;-81
2023/07/29 17:22:50;;;;;;;10.18;1.80;;;;;;;22.85;57.27;99859.47;10307986;28;20100;-81
2023/07/29 17:27:50;;;;;;;12.35;1.85;;;;;;;22.92;58.98;99905.28;10312246;28;20034;-83
2023/07/29 17:32:51;;;;;;;6.68;1.90;;;;;;;22.87;60.72;99935.84;10314607;28;20046;-83
2023/07/29 17:37:52;;;;;;;8.00;1.50;;;;;;;22.82;61.18;99946.63;10312256;28;20526;-82
2023/07/29 17:42:53;;;;;;;25.45;2.53;;;;;;;22.52;62.40;99930.94;10310643;28;20134;-82
2023/07/29 17:47:53;;;;;;;8.77;1.83;;;;;;;22.60;63.33;99979.22;10310052;28;20043;-82
2023/07/29 17:52:57;;;;;;;7.00;2.10;;;;;;;22.29;63.72;99959.16;10308327;28;20050;-81
2023/07/29 17:57:58;;;;;;;10.45;2.55;;;;;;;22.25;64.54;99979.66;10311491;28;20050;-81
2023/07/29 18:03:00;;;;;;;9.43;2.20;;;;;;;22.11;66.01;99993.56;10306541;28;20122;-81
2023/07/29 18:08:01;;;;;;;8.48;2.17;;;;;;;21.98;67.55;99995.81;10310516;28;20038;-82
2023/07/29 18:13:02;;;;;;;6.82;1.98;;;;;;;21.75;68.01;99988.78;10304948;28;20050;-82
2023/07/29 18:18:03;;;;;;;3.92;2.00;;;;;;;21.09;68.23;99903.00;10311719;28;20038;-83
2023/07/29 18:23:05;;;;;;;5.95;1.98;;;;;;;21.04;69.02;99915.59;10310378;28;20034;-84
2023/07/29 18:28:05;;;;;;;12.82;2.50;;;;;;;21.46;69.88;99988.09;10311160;28;20467;-82
2023/07/29 18:33:07;;;;;;;10.50;2.15;;;;;;;21.46;70.79;100001.63;10309212;28;20042;-81
2023/07/29 18:38:09;;;;;;;8.30;2.20;;;;;;;21.32;71.21;99993.00;10310580;28;20043;-82
2023/07/29 18:43:09;;;;;;;7.43;2.10;;;;;;;21.30;72.27;99997.81;10309068;28;20038;-81
2023/07/29 18:48:10;;;;;;;7.25;2.25;;;;;;;20.39;73.21;99876.47;10309330;28;20043;-82
2023/07/29 18:53:11;;;;;;;18.38;2.55;;;;;;;20.86;74.13;99963.38;10311404;28;20035;-81
2023/07/29 18:58:12;;;;;;;21.33;2.67;;;;;;;21.09;74.77;99993.97;10308339;28;20089;-80
2023/07/29 19:03:13;;;;;;;11.18;2.63;;;;;;;21.10;75.64;99998.34;10309809;28;20045;-81
2023/07/29 19:08:14;;;;;;;7.90;2.47;;;;;;;21.03;76.00;100009.31;10305851;28;20035;-82
2023/07/29 19:13:15;;;;;;;8.02;2.25;;;;;;;20.74;76.32;99957.25;10309342;28;20046;-82
2023/07/29 19:18:16;;;;;;;4.82;1.80;;;;;;;20.46;76.91;99923.84;10328514;28;20054;-83
2023/07/29 19:23:17;;;;;;;6.28;2.13;;;;;;;20.13;76.59;99861.72;10328237;28;20050;-83
2023/07/29 19:28:18;;;;;;;12.07;2.58;;;;;;;20.67;76.79;99940.38;10330358;28;20035;-83
2023/07/29 19:33:20;;;;;;;13.88;2.30;;;;;;;20.58;77.25;99912.16;10328371;28;20038;-83
2023/07/29 19:38:20;;;;;;;6.13;2.35;;;;;;;20.44;76.92;99877.38;10329790;28;20046;-83
2023/07/29 19:43:23;;;;;;;24.88;3.10;;;;;;;20.65;77.29;99913.66;10327176;28;20042;-82
2023/07/29 19:48:24;;;;;;;12.98;2.53;;;;;;;21.30;77.39;100004.06;10329147;28;20083;-82
2023/07/29 19:53:25;;;;;;;43.88;3.13;;;;;;;20.41;77.57;99867.06;10327474;28;20046;-81
2023/07/29 19:58:26;;;;;;;13.18;2.65;;;;;;;20.79;78.26;99924.09;10330905;28;20043;-82
2023/07/29 20:03:27;;;;;;;12.93;3.25;;;;;;;20.80;78.29;99929.28;10331096;28;20042;-82
2023/07/29 20:08:27;;;;;;;5.40;2.05;;;;;;;20.49;78.69;99882.88;10336996;28;20038;-82
2023/07/29 20:13:28;;;;;;;9.77;2.92;;;;;;;20.61;79.60;99903.56;10338176;28;20057;-82
2023/07/29 20:18:29;;;;;;;11.98;3.20;;;;;;;21.22;80.45;100020.69;10336955;28;20049;-82
2023/07/29 20:23:30;;;;;;;9.55;2.80;;;;;;;21.24;80.99;100023.97;10337088;28;20503;-81
2023/07/29 20:28:31;;;;;;;10.90;2.53;;;;;;;20.52;81.37;99924.75;10336991;28;20034;-82
2023/07/29 20:33:32;;;;;;;7.43;2.65;;;;;;;21.02;81.36;100020.34;10337313;28;20046;-82
2023/07/29 20:38:33;;;;;;;9.65;2.85;;;;;;;20.55;82.23;99939.63;10336216;28;20432;-81
2023/07/29 20:43:34;;;;;;;8.02;3.15;;;;;;;20.72;81.99;99968.28;10336973;28;20137;-82
2023/07/29 20:48:35;;;;;;;8.77;3.25;;;;;;;20.57;81.73;99934.81;10335730;28;20125;-81
2023/07/29 20:53:35;;;;;;;9.20;3.30;;;;;;;21.07;81.26;99993.44;10335828;28;20042;-81
2023/07/29 20:58:36;;;;;;;6.95;2.92;;;;;;;20.96;81.96;99968.13;10335356;28;20092;-81
2023/07/29 21:03:38;;;;;;;9.95;3.90;;;;;;;20.79;82.93;99970.00;10335839;28;20049;-81
2023/07/29 21:08:38;;;;;;;10.43;4.57;;;;;;;20.40;83.67;99937.44;10335688;28;20513;-81
2023/07/29 21:13:39;;;;;;;10.80;5.05;;;;;;;20.77;83.97;100029.66;10317645;28;20061;-82
2023/07/29 21:18:40;;;;;;;7.63;4.40;;;;;;;19.78;83.99;99897.75;10317012;28;20109;-81
2023/07/29 21:23:41;;;;;;;8.05;3.88;;;;;;;20.73;84.00;100033.88;10335679;28;20047;-81
2023/07/29 21:28:42;;;;;;;8.82;3.92;;;;;;;19.40;83.43;99802.13;10334861;28;20049;-81
2023/07/29 21:33:42;;;;;;;7.03;3.92;;;;;;;19.63;83.12;99830.06;10334784;28;20115;-81
2023/07/29 21:38:43;;;;;;;9.73;4.60;;;;;;;19.19;83.63;99751.59;10334705;28;20054;-81
2023/07/29 21:43:44;;;;;;;13.15;4.68;;;;;;;19.13;84.56;99756.88;10334776;28;20522;-80
2023/07/29 21:48:46;;;;;;;11.25;4.45;;;;;;;19.06;85.28;99766.97;10334069;28;20042;-80
2023/07/29 21:53:46;;;;;;;8.93;4.10;;;;;;;20.13;85.93;99977.66;10333935;28;20045;-80
2023/07/29 21:58:47;;;;;;;11.52;4.75;;;;;;;20.02;86.38;99990.97;10333619;28;20072;-80
2023/07/29 22:03:48;;;;;;;7.15;4.22;;;;;;;20.17;86.65;100032.78;10333504;28;20112;-80
2023/07/29 22:08:49;;;;;;;7.90;4.22;;;;;;;19.92;86.51;99985.34;10333565;28;20042;-80
2023/07/29 22:13:50;;;;;;;7.35;4.45;;;;;;;19.79;86.33;99942.50;10333701;28;20054;-80
2023/07/29 22:18:51;;;;;;;16.38;4.95;;;;;;;19.93;86.08;99945.75;10332418;28;20140;-80
2023/07/29 22:23:51;;;;;;;9.65;4.82;;;;;;;20.18;85.07;99962.41;10333350;28;20038;-80
2023/07/29 22:28:52;;;;;;;9.35;5.03;;;;;;;19.92;84.34;99893.69;10332229;28;20046;-80
2023/07/29 22:33:53;;;;;;;7.28;4.10;;;;;;;20.82;82.60;100016.25;10332616;28;20046;-80
2023/07/29 22:38:54;;;;;;;11.80;5.30;;;;;;;20.19;80.72;99915.53;10331483;28;20051;-81
2023/07/29 22:43:55;;;;;;;12.90;4.93;;;;;;;20.04;80.91;99889.09;10333393;28;20046;-80
2023/07/29 22:48:55;;;;;;;11.20;4.90;;;;;;;20.58;81.58;99985.88;10331925;28;20053;-80
2023/07/29 22:53:56;;;;;;;11.65;4.38;;;;;;;20.31;81.65;99961.28;10332069;28;20074;-80
2023/07/29 22:58:59;;;;;;;8.73;4.60;;;;;;;19.86;80.91;99869.56;10332133;28;20065;-80
2023/07/29 23:03:59;;;;;;;7.78;4.57;;;;;;;20.43;81.43;99948.59;10332500;28;20047;-80
2023/07/29 23:09:00;;;;;;;8.00;4.18;;;;;;;20.86;81.44;100022.78;10331763;28;20049;-80
2023/07/29 23:14:01;;;;;;;9.40;4.40;;;;;;;20.22;80.45;99919.59;10314747;28;20105;-80
2023/07/29 23:19:02;;;;;;;9.00;4.88;;;;;;;20.16;81.11;99898.97;10331835;28;20498;-80
2023/07/29 23:24:03;;;;;;;7.90;4.55;;;;;;;20.49;81.35;99963.81;10331744;28;20122;-80
2023/07/29 23:29:03;;;;;;;9.40;4.88;;;;;;;20.85;80.75;100025.72;10331783;28;20101;-80
2023/07/29 23:34:04;;;;;;;7.82;4.53;;;;;;;20.30;81.43;99951.56;10331328;28;20569;-80
2023/07/29 23:39:05;;;;;;;7.97;4.90;;;;;;;19.71;81.53;99883.56;10313782;28;20081;-80
2023/07/29 23:44:06;;;;;;;8.88;4.57;;;;;;;20.33;82.46;100004.22;10339277;28;20057;-80
2023/07/29 23:49:07;;;;;;;7.88;4.32;;;;;;;20.58;83.44;100041.69;10321244;28;20038;-80
2023/07/29 23:54:07;;;;;;;9.18;4.35;;;;;;;19.73;83.93;99914.63;10338310;28;20046;-80
2023/07/29 23:59:08;;;;;;;9.48;4.63;;;;;;;20.37;84.45;100014.31;10338373;28;20043;-80
